Close

Questo sito utlizza cookie. Può leggere come li usiamo nella nostra Privacy Policy.

Ronchi Tower
Ronchi Tower

From Facebook

METAR & TAF

2021/06/16 10:20 LIPQ 161020Z AUTO VRB04KT 9999 NCD 29/17 Q1016
2021/06/16 06:21 TAF LIPQ 160500Z 1606/1706 VRB05KT CAVOK
2021/06/16 10:20 LIPZ 161020Z 15005KT 130V190 CAVOK 27/18 Q1017 NOSIG
2021/06/16 06:21 TAF LIPZ 160500Z 1606/1712 VRB05KT CAVOK BECMG 1610/1612 16010KT BECMG 1618/1620 VRB05KT BECMG 1710/1712 16010KT
2021/06/16 10:20 LIPH 161020Z VRB02KT CAVOK 29/17 Q1016
2021/06/16 06:25 TAF LIPH 160500Z 1606/1706 VRB05KT 9999 FEW050
2021/06/16 10:20 LIRF 161020Z 24010KT 9999 FEW025 25/19 Q1016 NOSIG
2021/06/16 06:23 TAF LIRF 160500Z 1606/1712 VRB05KT 9999 FEW020 BECMG 1607/1609 24013KT BECMG 1617/1619 VRB05KT TEMPO 1700/1705 4000 BR BECMG 1707/1709 24013KT
2021/06/16 10:20 LIML 161020Z 08004KT 040V130 9999 FEW050 BKN070 26/17 Q1017 NOSIG
2021/06/16 06:21 TAF LIML 160500Z 1606/1706 VRB05KT CAVOK BECMG 1608/1610 12010KT BECMG 1616/1618 VRB05KT
2021/06/16 10:20 EDDM 161020Z VRB04KT CAVOK 26/12 Q1017 NOSIG
2021/06/16 06:27 TAF EDDM 160500Z 1606/1712 VRB03KT CAVOK BECMG 1607/1609 08007KT BECMG 1619/1621 VRB03KT
2021/06/16 10:20 EGSS 161020Z AUTO 23007KT 160V260 9999 NCD 24/14 Q1012
2021/06/16 06:09 TAF EGSS 160501Z 1606/1712 14005KT 9999 FEW040 BECMG 1609/1612 22010KT BECMG 1621/1624 VRB03KT TEMPO 1622/1712 6000 RA SHRA PROB40 TEMPO 1700/1706 2500 +TSRA BKN006 BKN060CB TEMPO 1706/1712 BKN008 BECMG 1709/1712 33010KT
2021/06/16 10:20 EDDF 161020Z 06005KT 330V120 CAVOK 28/16 Q1015 NOSIG
2021/06/16 06:27 TAF TAF EDDF 160500Z 1606/1712 03008KT CAVOK BECMG 1608/1610 09007KT BECMG 1612/1614 15007KT BECMG 1619/1622 05005KT BECMG 1709/1711 17006KT

FlightRadar24

Radar Meteo

Traffic data

Agosto 2018

Passeggeri: 63892-12,9% (rank: 23)
Nazionali 34490 -19,8%
Internazionali 29193 -3,0%

Movimenti: 1307+11,7% (rank: 24)
Tot commerciale 556 -7,2%
Aviazione generale 751 +31,5%

Cargo (tons): 20,6+62,5% (rank: 21)

Gennaio - Agosto 2018

Passeggeri: 507438-3,5% (rank: 23)
Nazionali 322655 -4,9%
Internazionali 182927 -0,7%

Movimenti: 10366-4,25 (rank: 22)
Tot commerciale 5328 -11,0%
Aviazione generale 5038 +4,2%

Cargo (tons): 299,2+61,9% (rank: 20)

Photo

Douglas DC-6B
Douglas DC-6B
Distinct views: 20
Reims F152
Reims F152
Distinct views: 82
Douglas DC-6B
Douglas DC-6B
Distinct views: 186
Boeing 737-800
Boeing 737-800
Total views: 6434